createdAt,value
2017-02-04T17:22:38.155Z,16.8
2017-02-04T17:23:03.922Z,16.77
2017-02-04T17:23:29.507Z,16.77
2017-02-04T17:23:55.083Z,16.81
2017-02-04T17:24:20.648Z,16.78
2017-02-04T17:24:46.266Z,16.8
2017-02-04T17:25:11.805Z,16.8
2017-02-04T17:25:37.493Z,16.81
2017-02-04T17:26:03.251Z,16.92
2017-02-04T17:26:29.154Z,16.96
2017-02-04T17:26:54.718Z,16.88
2017-02-04T17:27:20.302Z,16.93
2017-02-04T17:27:45.878Z,16.9
2017-02-04T17:28:11.449Z,16.96
2017-02-04T17:28:37.044Z,16.95
2017-02-04T17:29:02.641Z,16.95
2017-02-04T17:30:01.077Z,16.93
2017-02-04T17:30:26.841Z,16.95
2017-02-04T17:30:52.462Z,16.98
2017-02-04T17:31:18.041Z,16.95
2017-02-04T17:31:43.874Z,16.95
2017-02-04T17:32:09.465Z,16.89
2017-02-04T17:32:35.058Z,16.96
2017-02-04T17:33:00.682Z,16.96
2017-02-04T17:33:26.347Z,16.93
2017-02-04T17:33:51.933Z,16.95
2017-02-04T17:34:17.498Z,16.92
2017-02-04T17:34:43.277Z,16.99
2017-02-04T17:35:09.367Z,16.89
2017-02-04T17:35:34.960Z,16.93
2017-02-04T17:36:00.580Z,16.86
2017-02-04T17:36:26.272Z,16.9
2017-02-04T17:36:51.851Z,16.81
2017-02-04T17:37:17.412Z,16.8
2017-02-04T17:37:43.055Z,16.95
2017-02-04T17:38:08.842Z,16.81
2017-02-04T17:38:34.560Z,16.85
2017-02-04T17:39:00.103Z,16.9
2017-02-04T17:39:25.693Z,16.85
2017-02-04T17:39:51.307Z,16.93
2017-02-04T17:40:16.916Z,16.88
2017-02-04T17:40:42.502Z,16.93
2017-02-04T17:41:08.067Z,16.88
2017-02-04T17:41:33.636Z,16.96
2017-02-04T17:41:59.284Z,16.89
2017-02-04T17:42:24.861Z,16.86
2017-02-04T17:42:50.431Z,16.92
2017-02-04T17:43:16.010Z,16.92
2017-02-04T17:43:41.758Z,16.95
2017-02-04T17:44:07.376Z,16.99
2017-02-04T17:44:32.966Z,16.98
2017-02-04T17:44:58.528Z,16.99
2017-02-04T17:45:24.344Z,16.98
2017-02-04T17:45:49.976Z,16.99
2017-02-04T17:46:15.551Z,16.99
2017-02-04T17:46:41.197Z,17.06
2017-02-04T17:47:06.774Z,17
2017-02-04T17:47:32.414Z,17.07
2017-02-04T17:47:58.028Z,17.03
2017-02-04T17:48:23.790Z,16.99
2017-02-04T17:48:49.431Z,17.06
2017-02-04T17:49:15.047Z,16.96
2017-02-04T17:49:40.634Z,17.04
2017-02-04T17:50:06.243Z,17.03
2017-02-04T17:50:31.835Z,17
2017-02-04T17:50:57.492Z,17
2017-02-04T17:51:23.080Z,16.98
2017-02-04T17:51:48.688Z,17
2017-02-04T17:52:14.413Z,17
2017-02-04T17:52:40.231Z,16.98
2017-02-04T17:53:33.518Z,16.99
2017-02-04T17:53:59.088Z,16.98
2017-02-04T17:54:24.707Z,16.99
2017-02-04T17:54:50.333Z,17.03
2017-02-04T17:55:15.949Z,17.03
2017-02-04T17:55:41.651Z,16.99
2017-02-04T17:56:07.799Z,17
2017-02-04T17:56:33.378Z,17.04
2017-02-04T17:56:58.968Z,17.06
2017-02-04T17:57:24.545Z,17
2017-02-04T17:57:50.101Z,17.08
2017-02-04T17:58:15.702Z,17.04
2017-02-04T17:58:41.265Z,17
2017-02-04T17:59:06.869Z,16.99
2017-02-04T17:59:32.439Z,17.03
2017-02-04T17:59:58.002Z,17.04
2017-02-04T18:00:23.591Z,17.08
2017-02-04T18:00:49.235Z,17.07
2017-02-04T18:01:15.629Z,17.06
2017-02-04T18:01:41.232Z,17
2017-02-04T18:02:06.823Z,17.08
2017-02-04T18:03:00.156Z,17.11
2017-02-04T18:03:25.770Z,17.06
2017-02-04T18:03:51.411Z,17.06
2017-02-04T18:04:17.030Z,17.08
2017-02-04T18:04:42.666Z,17.08
2017-02-04T18:05:08.238Z,17.07
2017-02-04T18:05:33.813Z,17.08
2017-02-04T18:05:59.368Z,17.13
2017-02-04T18:07:07.752Z,17.07
2017-02-04T18:09:14.852Z,17.08
2017-02-04T18:09:40.468Z,17.1
2017-02-04T18:10:06.141Z,17.08
2017-02-04T18:10:31.735Z,17.08
2017-02-04T18:10:57.298Z,17.08
2017-02-04T18:11:22.953Z,17.07
2017-02-04T18:11:48.562Z,17.06
2017-02-04T18:12:14.175Z,17.07
2017-02-04T18:12:39.844Z,17.06
2017-02-04T18:13:05.513Z,17.11
2017-02-04T18:13:31.147Z,17.11
2017-02-04T18:13:56.707Z,17.08
2017-02-04T18:14:22.267Z,17.08
2017-02-04T18:14:47.980Z,17.07
2017-02-04T18:15:13.577Z,17.13
2017-02-04T18:15:39.205Z,17.06
2017-02-04T18:16:04.793Z,17.07
2017-02-04T18:16:30.355Z,17.07
2017-02-04T18:16:55.955Z,17.11
2017-02-04T18:17:21.525Z,17.06
2017-02-04T18:17:47.146Z,17.03
2017-02-04T18:18:12.774Z,17.06
2017-02-04T18:18:38.356Z,17.03
2017-02-04T18:19:03.940Z,17.1
2017-02-04T18:19:29.648Z,17.07
2017-02-04T18:19:55.376Z,17.08
2017-02-04T18:20:21.011Z,17.1
2017-02-04T18:20:46.597Z,17.04
2017-02-04T18:21:12.199Z,17.03
2017-02-04T18:21:37.764Z,17.04
2017-02-04T18:22:03.391Z,17.06
2017-02-04T18:22:29.063Z,17
2017-02-04T18:22:54.623Z,17.1
2017-02-04T18:23:20.187Z,17.06
2017-02-04T18:23:45.785Z,17.04
2017-02-04T18:24:11.441Z,17.06
2017-02-04T18:24:37.046Z,17.13
2017-02-04T18:25:02.638Z,17.1
2017-02-04T18:25:28.266Z,17.14
2017-02-04T18:25:53.849Z,17.1
2017-02-04T18:26:19.913Z,17.07
2017-02-04T18:26:45.002Z,17.13
2017-02-04T18:27:10.696Z,17.1
2017-02-04T18:27:36.280Z,17.07
2017-02-04T18:28:01.853Z,17.13
2017-02-04T18:28:28.313Z,17.13
2017-02-04T18:28:53.864Z,17.15
2017-02-04T18:29:19.436Z,17.15
2017-02-04T18:29:45.040Z,17.15
2017-02-04T18:30:10.615Z,17.14
2017-02-04T18:30:36.208Z,17.13
2017-02-04T18:31:01.816Z,17.1
2017-02-04T18:31:27.906Z,17.15
2017-02-04T18:31:53.470Z,17.17
2017-02-04T18:32:19.134Z,17.11
2017-02-04T18:32:44.710Z,17.11
2017-02-04T18:33:10.277Z,17.17
2017-02-04T18:33:35.932Z,17.1
2017-02-04T18:34:01.571Z,17.14
2017-02-04T18:34:27.174Z,17.15
2017-02-04T18:34:52.804Z,17.17
2017-02-04T18:35:18.375Z,17.13
2017-02-04T18:35:43.939Z,17.14
2017-02-04T18:36:09.540Z,17.17
2017-02-04T18:36:35.126Z,17.14
2017-02-04T18:37:00.727Z,17.11
2017-02-04T18:37:26.323Z,17.07
2017-02-04T18:37:51.949Z,17.13
2017-02-04T18:38:17.534Z,17.08
2017-02-04T18:38:43.157Z,17.18
2017-02-04T18:39:08.745Z,17.11
2017-02-04T18:39:34.360Z,17.15
2017-02-04T18:39:59.915Z,17.17
2017-02-04T18:40:25.478Z,17.03
2017-02-04T18:41:34.064Z,17.06
2017-02-04T18:41:59.746Z,17.11
2017-02-04T18:42:25.346Z,17.1
2017-02-04T18:42:50.918Z,17.14
2017-02-04T18:43:16.538Z,17.17
2017-02-04T18:43:42.127Z,17.15
2017-02-04T18:44:07.709Z,17.11
2017-02-04T18:44:33.376Z,17.13
2017-02-04T18:44:58.925Z,17.04
2017-02-04T18:45:24.526Z,17.11
2017-02-04T18:45:50.105Z,17.14
2017-02-04T18:46:15.743Z,17.13
2017-02-04T18:46:41.344Z,17.14
2017-02-04T18:47:06.915Z,17.13
2017-02-04T18:47:32.499Z,17.08
2017-02-04T18:47:58.115Z,17.07
2017-02-04T18:48:23.669Z,17.07
2017-02-04T18:48:49.227Z,17.13
2017-02-04T18:49:14.776Z,17.14
2017-02-04T18:49:40.406Z,17.1
2017-02-04T18:50:06.003Z,17.18
2017-02-04T18:50:31.635Z,17.1
2017-02-04T18:50:57.231Z,17.1
2017-02-04T18:51:22.894Z,17.11
2017-02-04T18:51:48.534Z,17.1
2017-02-04T18:52:14.096Z,17.1
2017-02-04T18:53:17.576Z,17.11
2017-02-04T18:53:43.170Z,17.1
2017-02-04T18:54:08.866Z,17.15
2017-02-04T18:54:34.559Z,17.1
2017-02-04T18:55:00.136Z,17.14
2017-02-04T18:55:25.732Z,17.11
2017-02-04T18:55:51.317Z,17.1
2017-02-04T18:56:16.884Z,17.11
2017-02-04T18:57:20.080Z,17.14
2017-02-04T18:57:45.661Z,17.11
2017-02-04T18:58:11.241Z,17.13
2017-02-04T18:58:36.913Z,17.11
2017-02-04T18:59:02.514Z,17.1
2017-02-04T18:59:28.080Z,17.17
2017-02-04T18:59:53.698Z,17.13
2017-02-04T19:00:19.306Z,17.14
2017-02-04T19:00:44.937Z,17.11
2017-02-04T19:01:10.507Z,17.14
2017-02-04T19:01:36.075Z,17.11
2017-02-04T19:02:01.751Z,17.11
2017-02-04T19:02:27.374Z,17.13
2017-02-04T19:02:52.935Z,17.18
2017-02-04T19:03:18.505Z,17.1
2017-02-04T19:03:44.155Z,17.15
2017-02-04T19:04:09.718Z,17.13
2017-02-04T19:04:35.310Z,17.11
2017-02-04T19:05:00.920Z,17.13
2017-02-04T19:05:26.568Z,17.11
2017-02-04T19:05:52.178Z,17.11
2017-02-04T19:06:17.760Z,17.13
2017-02-04T19:06:43.347Z,17.15
2017-02-04T19:07:08.905Z,17.11
2017-02-04T19:07:34.517Z,17.17
2017-02-04T19:08:00.109Z,17.14
2017-02-04T19:08:25.768Z,17.17
2017-02-04T19:08:52.361Z,17.08
2017-02-04T19:09:18.293Z,17.14
2017-02-04T19:09:44.014Z,17.13
2017-02-04T19:10:09.694Z,17.08
2017-02-04T19:10:35.371Z,17.11
2017-02-04T19:11:00.999Z,17.11
2017-02-04T19:11:26.680Z,17.18
2017-02-04T19:11:52.387Z,17.18
2017-02-04T19:12:17.982Z,17.11
2017-02-04T19:12:43.666Z,17.14
2017-02-04T19:13:09.248Z,17.11
2017-02-04T19:13:34.906Z,17.17
2017-02-04T19:14:00.484Z,17.15
2017-02-04T19:14:26.075Z,17.13
2017-02-04T19:14:51.756Z,17.17
2017-02-04T19:15:17.333Z,17.18
2017-02-04T19:15:43.013Z,17.1
2017-02-04T19:16:08.585Z,17.08
2017-02-04T19:16:34.215Z,17.14
2017-02-04T19:17:00.016Z,17.17
2017-02-04T19:17:25.801Z,17.15
2017-02-04T19:17:51.426Z,17.08
2017-02-04T19:18:17.149Z,17.15
2017-02-04T19:18:42.722Z,17.11
2017-02-04T19:19:08.317Z,17.17
2017-02-04T19:19:33.945Z,17.13
2017-02-04T19:19:59.544Z,17.13
2017-02-04T19:20:25.118Z,17.17
2017-02-04T19:20:50.826Z,17.13
2017-02-04T19:21:16.404Z,17.07
2017-02-04T19:21:42.096Z,17.13
2017-02-04T19:22:07.663Z,17.18
2017-02-04T19:22:33.350Z,17.13
2017-02-04T19:22:59.052Z,17.15
2017-02-04T19:23:24.722Z,17.14
2017-02-04T19:23:50.359Z,17.17
2017-02-04T19:24:16.031Z,17.14
2017-02-04T19:24:41.615Z,17.11
2017-02-04T19:25:07.404Z,17.13
2017-02-04T19:25:33.313Z,17.13
2017-02-04T19:25:58.754Z,17.11
2017-02-04T19:26:24.434Z,17.1
2017-02-04T19:26:50.068Z,17.13
2017-02-04T19:27:15.737Z,17.15
2017-02-04T19:27:41.379Z,17.11
2017-02-04T19:28:07.077Z,17.14
2017-02-04T19:28:32.662Z,17.15
2017-02-04T19:28:58.287Z,17.17
2017-02-04T19:29:23.858Z,17.13
2017-02-04T19:29:49.447Z,17.11
2017-02-04T19:30:15.102Z,17.08
2017-02-04T19:30:40.742Z,17.15
2017-02-04T19:31:06.475Z,17.13
2017-02-04T19:31:32.140Z,17.13
2017-02-04T19:31:57.717Z,17.17
2017-02-04T19:32:23.348Z,17.13
2017-02-04T19:32:48.969Z,17.11
2017-02-04T19:33:14.689Z,17.17
2017-02-04T19:33:40.310Z,17.15
2017-02-04T19:34:05.993Z,17.15
2017-02-04T19:34:31.645Z,17.13
2017-02-04T19:34:57.286Z,17.13
2017-02-04T19:35:50.718Z,17.13
2017-02-04T19:36:16.425Z,17.13
2017-02-04T19:36:42.017Z,17.11
2017-02-04T19:37:07.659Z,17.18
2017-02-04T19:37:33.248Z,17.2
2017-02-04T19:37:58.828Z,17.14
2017-02-04T19:38:24.564Z,17.15
2017-02-04T19:38:50.335Z,17.13
2017-02-04T19:39:38.224Z,17.1
2017-02-04T19:40:03.803Z,17.14
2017-02-04T19:40:52.066Z,17.14
2017-02-04T19:41:17.743Z,17.15
2017-02-04T19:41:43.416Z,17.14
2017-02-04T19:42:08.995Z,17.11
2017-02-04T19:42:34.612Z,17.11
2017-02-04T19:43:00.271Z,17.11
2017-02-04T19:43:25.982Z,17.14
2017-02-04T19:43:51.655Z,17.11
2017-02-04T19:44:17.256Z,17.14
2017-02-04T19:45:53.299Z,17.11
2017-02-04T19:46:18.875Z,17.13
2017-02-04T19:46:44.466Z,17.13
2017-02-04T19:47:10.139Z,17.13
2017-02-04T19:47:35.993Z,17.11
2017-02-04T19:48:01.635Z,17.14
2017-02-04T19:48:27.210Z,17.13
2017-02-04T19:48:52.844Z,17.1
2017-02-04T19:49:18.514Z,17.13
2017-02-04T19:49:44.343Z,17.13
2017-02-04T19:50:10.041Z,17.13
2017-02-04T19:50:35.741Z,17.1
2017-02-04T19:51:01.323Z,17.14
2017-02-04T19:51:26.919Z,17.11
2017-02-04T19:51:52.611Z,17.2
2017-02-04T19:52:18.451Z,17.13
2017-02-04T19:52:44.137Z,17.11
2017-02-04T19:53:09.758Z,17.14
2017-02-04T19:53:35.344Z,17.14
2017-02-04T19:54:01.120Z,17.13
2017-02-04T19:54:26.759Z,17.14
2017-02-04T19:54:52.354Z,17.15
2017-02-04T19:55:17.929Z,17.11
2017-02-04T19:55:43.590Z,17.13
2017-02-04T19:56:09.193Z,17.08
2017-02-04T19:56:34.852Z,17.13
2017-02-04T19:57:01.285Z,17.15
2017-02-04T19:57:26.960Z,17.07
2017-02-04T19:57:52.545Z,17.04
2017-02-04T19:58:18.181Z,17.22
2017-02-04T19:58:43.880Z,17.14
2017-02-04T19:59:09.578Z,17.13
2017-02-04T19:59:35.201Z,17.11
2017-02-04T20:00:00.880Z,17.07
2017-02-04T20:00:26.533Z,17.13
2017-02-04T20:00:52.249Z,17.17
2017-02-04T20:01:17.890Z,17.06
2017-02-04T20:01:43.508Z,17.13
2017-02-04T20:02:09.109Z,17.03
2017-02-04T20:02:34.926Z,17.13
2017-02-04T20:03:00.591Z,17.13
2017-02-04T20:03:26.181Z,17.1
2017-02-04T20:03:51.847Z,17.17
2017-02-04T20:04:17.445Z,17.1
2017-02-04T20:04:43.173Z,17.2
2017-02-04T20:05:08.854Z,17.1
2017-02-04T20:05:34.426Z,17.11
2017-02-04T20:06:00.023Z,17.13
2017-02-04T20:06:25.696Z,17.15
2017-02-04T20:06:51.319Z,17.13
2017-02-04T20:07:16.894Z,17.07
2017-02-04T20:07:42.453Z,17.15
2017-02-04T20:08:08.043Z,17.11
2017-02-04T20:08:33.745Z,17.04
2017-02-04T20:08:59.353Z,17.04
2017-02-04T20:09:25.028Z,17.08
2017-02-04T20:09:50.758Z,17.14
2017-02-04T20:10:16.393Z,17.15
2017-02-04T20:10:42.039Z,17.1
2017-02-04T20:11:07.671Z,17.14
2017-02-04T20:11:33.268Z,17.11
2017-02-04T20:11:58.995Z,17.13
2017-02-04T20:12:24.564Z,17.15
2017-02-04T20:12:50.155Z,17.06
2017-02-04T20:13:15.826Z,17.13
2017-02-04T20:13:41.489Z,17.13
2017-02-04T20:14:07.129Z,17.1
2017-02-04T20:14:32.777Z,17.1
2017-02-04T20:14:58.388Z,17.1
2017-02-04T20:15:24.033Z,17.13
2017-02-04T20:15:49.661Z,17.13
2017-02-04T20:16:15.293Z,17.11
2017-02-04T20:16:41.037Z,17.08
2017-02-04T20:17:07.130Z,17.13
2017-02-04T20:17:32.811Z,17.11
2017-02-04T20:17:58.412Z,17.14
2017-02-04T20:18:24.124Z,17.14
2017-02-04T20:19:22.580Z,17.11
2017-02-04T20:19:48.238Z,17.13
2017-02-04T20:20:13.879Z,17.13
2017-02-04T20:20:39.485Z,17.14
2017-02-04T20:21:05.066Z,17.18
2017-02-04T20:21:30.664Z,17.11
2017-02-04T20:21:56.347Z,17.03
2017-02-04T20:22:22.051Z,17.06
2017-02-04T20:22:47.641Z,17.06
2017-02-04T20:23:13.281Z,17.11
2017-02-04T20:23:39.054Z,17.1
2017-02-04T20:24:42.573Z,17.14
2017-02-04T20:25:08.359Z,17.03
2017-02-04T20:25:34.027Z,17.08
2017-02-04T20:25:59.596Z,17.1
2017-02-04T20:26:25.215Z,16.99
2017-02-04T20:26:50.960Z,17.15
2017-02-04T20:27:16.487Z,17.07
2017-02-04T20:27:42.134Z,17.11
2017-02-04T20:28:07.735Z,17.03
2017-02-04T20:28:33.357Z,17.1
2017-02-04T20:28:59.024Z,17.13
2017-02-04T20:30:12.466Z,17.18
2017-02-04T20:32:52.882Z,17.03
2017-02-04T20:33:18.546Z,17.04
2017-02-04T20:35:25.936Z,17.06
2017-02-04T20:35:51.592Z,17.13
2017-02-04T20:36:17.247Z,17.1
2017-02-04T20:36:42.833Z,17.14
2017-02-04T20:37:08.471Z,17.11
2017-02-04T20:37:34.172Z,17.2
2017-02-04T20:37:59.755Z,17.18
2017-02-04T20:38:25.505Z,17.08
2017-02-04T20:38:51.147Z,17.13
2017-02-04T20:39:16.762Z,17.11
2017-02-04T20:39:42.529Z,17.14
2017-02-04T20:40:08.167Z,17.1
2017-02-04T20:40:33.748Z,17.07
2017-02-04T20:40:59.480Z,17.13
2017-02-04T20:41:25.096Z,17.1
2017-02-04T20:41:50.716Z,17.07
2017-02-04T20:42:16.309Z,17.07
2017-02-04T20:42:41.890Z,17.15
2017-02-04T20:43:07.579Z,17.13
2017-02-04T20:44:11.070Z,17.11
2017-02-04T20:44:36.798Z,17.13
2017-02-04T20:45:02.492Z,17.1
2017-02-04T20:45:28.105Z,17.15
2017-02-04T20:45:53.801Z,17.14
2017-02-04T20:46:19.553Z,17.1
2017-02-04T20:46:45.247Z,17.18
2017-02-04T20:47:10.875Z,17.04
2017-02-04T20:47:36.508Z,17.14
2017-02-04T20:48:02.103Z,17.11
2017-02-04T20:48:27.797Z,17.13
2017-02-04T20:48:53.491Z,17.1
2017-02-04T20:49:19.137Z,17.13
2017-02-04T20:49:44.830Z,17.15
2017-02-04T20:50:10.507Z,17.1
2017-02-04T20:50:36.276Z,17.14
2017-02-04T20:51:01.860Z,17.1
2017-02-04T20:51:27.468Z,17.1
2017-02-04T20:51:53.065Z,17.15
2017-02-04T20:52:18.698Z,17.08
2017-02-04T20:52:44.335Z,17.17
2017-02-04T20:53:09.902Z,17.08
2017-02-04T20:53:35.635Z,17.1
2017-02-04T20:54:01.334Z,17.11
2017-02-04T20:54:26.907Z,17.13
2017-02-04T20:54:52.521Z,17.13
2017-02-04T20:55:18.100Z,17.13
2017-02-04T20:55:43.794Z,17.15
2017-02-04T20:56:09.436Z,17.15
2017-02-04T20:56:35.068Z,17.07
2017-02-04T20:57:00.714Z,17.04
2017-02-04T20:57:26.363Z,17.13
2017-02-04T20:57:51.985Z,17.15
2017-02-04T20:58:17.813Z,17.13
2017-02-04T20:58:43.467Z,17.17
2017-02-04T20:59:09.049Z,17.04
2017-02-04T20:59:34.736Z,17.1
2017-02-04T21:00:01.076Z,17.11
2017-02-04T21:00:27.107Z,17.11
2017-02-04T21:00:52.794Z,17.1
2017-02-04T21:01:18.427Z,17.11
2017-02-04T21:01:44.034Z,17.04
2017-02-04T21:02:09.613Z,17.1
2017-02-04T21:02:35.264Z,17.11
2017-02-04T21:03:00.864Z,16.99
2017-02-04T21:03:26.560Z,17.13
2017-02-04T21:03:52.271Z,17.13
2017-02-04T21:04:17.987Z,17.11
2017-02-04T21:04:43.664Z,17.06
2017-02-04T21:05:09.239Z,17.15
2017-02-04T21:05:34.912Z,17.13
2017-02-04T21:06:00.544Z,17.06
2017-02-04T21:06:26.103Z,17.04
2017-02-04T21:06:51.781Z,17.17
2017-02-04T21:07:17.753Z,17.14
2017-02-04T21:07:43.406Z,17.03
2017-02-04T21:08:09.097Z,17.14
2017-02-04T21:08:34.692Z,17
2017-02-04T21:09:00.252Z,17.15
2017-02-04T21:09:25.863Z,17.08
2017-02-04T21:09:51.422Z,17.15
2017-02-04T21:10:17.123Z,17.07
2017-02-04T21:10:42.703Z,17.15
2017-02-04T21:11:08.309Z,17.1
2017-02-04T21:11:33.957Z,17.1
2017-02-04T21:11:59.612Z,17.22
2017-02-04T21:12:25.343Z,17.13
2017-02-04T21:12:51.068Z,17.08
2017-02-04T21:13:17.707Z,17.11
2017-02-04T21:13:43.294Z,17.18
2017-02-04T21:14:08.903Z,17.11
2017-02-04T21:14:34.482Z,17.17
2017-02-04T21:15:00.145Z,17.13
2017-02-04T21:15:25.812Z,17.13
2017-02-04T21:15:51.392Z,17.11
2017-02-04T21:16:17.028Z,17.08
2017-02-04T21:16:42.646Z,17.07
2017-02-04T21:17:08.302Z,17.18
2017-02-04T21:17:33.920Z,17.14
2017-02-04T21:17:59.609Z,17.15
2017-02-04T21:18:25.300Z,17.15
2017-02-04T21:18:50.902Z,17.04
2017-02-04T21:19:16.516Z,17
2017-02-04T21:19:42.139Z,17.11
2017-02-04T21:20:07.873Z,17.14
2017-02-04T21:20:33.459Z,17.11
2017-02-04T21:20:59.269Z,17.13
2017-02-04T21:21:25.018Z,17.11
2017-02-04T21:21:50.623Z,17.18
2017-02-04T21:22:16.248Z,17.1
2017-02-04T21:22:41.946Z,17.11
2017-02-04T21:23:07.559Z,17.1
2017-02-04T21:23:33.192Z,17.04
2017-02-04T21:23:58.881Z,17.13
2017-02-04T21:24:24.392Z,17.13
2017-02-04T21:24:49.992Z,17.14
2017-02-04T21:25:15.608Z,17.13
2017-02-04T21:25:41.215Z,17.1
2017-02-04T21:26:06.881Z,17.03
2017-02-04T21:26:32.633Z,17.1
2017-02-04T21:26:58.226Z,17.1
2017-02-04T21:27:23.808Z,17.14
2017-02-04T21:27:49.445Z,17.15
2017-02-04T21:28:15.046Z,17.13
2017-02-04T21:28:40.771Z,17.07
2017-02-04T21:29:06.438Z,17.15
2017-02-04T21:29:32.021Z,17.14
2017-02-04T21:29:57.693Z,17.17
2017-02-04T21:30:23.293Z,17.11
2017-02-04T21:30:48.947Z,17.07
2017-02-04T21:31:14.544Z,17.1
2017-02-04T21:31:40.135Z,17.13
2017-02-04T21:32:05.714Z,17.17
2017-02-04T21:32:31.352Z,17.13
2017-02-04T21:32:56.951Z,17.18
2017-02-04T21:33:22.793Z,17.13
2017-02-04T21:33:48.396Z,17.1
2017-02-04T21:34:14.083Z,17.08
2017-02-04T21:34:39.688Z,17.15
2017-02-04T21:35:05.320Z,17.06
2017-02-04T21:35:30.966Z,17.1
2017-02-04T21:35:56.575Z,17.13
2017-02-04T21:36:22.308Z,17.07
2017-02-04T21:36:48.058Z,17.03
2017-02-04T21:37:13.786Z,17.1
2017-02-04T21:37:39.499Z,17.13
2017-02-04T21:38:05.209Z,17.13
2017-02-04T21:38:30.803Z,17.08
2017-02-04T21:38:56.458Z,17.03
2017-02-04T21:39:22.156Z,17.15
2017-02-04T21:39:47.743Z,17.08
2017-02-04T21:40:13.346Z,17.15
2017-02-04T21:41:11.977Z,17.13
2017-02-04T21:41:37.638Z,17.15
2017-02-04T21:42:03.274Z,17.14
2017-02-04T21:42:28.889Z,17.07
2017-02-04T21:42:54.695Z,17.13
2017-02-04T21:43:20.354Z,17.11
2017-02-04T21:43:45.963Z,17.15
2017-02-04T21:44:11.619Z,17.1
2017-02-04T21:44:37.267Z,17.14
2017-02-04T21:45:02.889Z,17.14
2017-02-04T21:45:28.465Z,17.15
2017-02-04T21:45:54.099Z,17.08
2017-02-04T21:46:19.715Z,17.14
2017-02-04T21:46:45.370Z,17.13
2017-02-04T21:47:11.049Z,17.13
2017-02-04T21:47:36.739Z,17.14
2017-02-04T21:48:02.411Z,17.1
2017-02-04T21:48:28.132Z,17.13
2017-02-04T21:48:53.673Z,17.14
2017-02-04T21:49:19.270Z,17.11
2017-02-04T21:49:44.913Z,17.11
2017-02-04T21:50:10.530Z,17.08
2017-02-04T21:50:36.260Z,17.14
2017-02-04T21:51:01.913Z,17.13
2017-02-04T21:51:27.730Z,17.11
2017-02-04T21:51:53.356Z,17.11
2017-02-04T21:52:18.962Z,17.15
2017-02-04T21:52:44.632Z,17.11
2017-02-04T21:53:10.212Z,17.13
2017-02-04T21:53:35.813Z,17.13
2017-02-04T21:54:01.510Z,17.11
2017-02-04T21:54:27.155Z,17.14
2017-02-04T21:54:52.730Z,17.13
2017-02-04T21:55:18.386Z,17.11
2017-02-04T21:55:43.944Z,17.14
2017-02-04T21:56:09.590Z,17.14
2017-02-04T21:56:35.254Z,17.2
2017-02-04T21:57:00.935Z,17.11
2017-02-04T21:57:26.660Z,17.1
2017-02-04T21:57:52.273Z,17.1
2017-02-04T21:58:18.334Z,17.13
2017-02-04T21:58:43.971Z,17.17
2017-02-04T21:59:09.584Z,17.11
2017-02-04T21:59:35.150Z,17.15
2017-02-04T22:00:00.867Z,17.13
2017-02-04T22:00:26.608Z,17.11
2017-02-04T22:00:52.193Z,17.13
2017-02-04T22:01:17.793Z,17.14
2017-02-04T22:02:16.308Z,17.14
2017-02-04T22:02:41.933Z,17.13
2017-02-04T22:03:07.533Z,17.18
2017-02-04T22:03:33.219Z,17.14
2017-02-04T22:03:59.110Z,17.17
2017-02-04T22:04:24.675Z,17.1
2017-02-04T22:04:50.285Z,17.13
2017-02-04T22:05:15.871Z,17.13
2017-02-04T22:05:41.577Z,17.15
2017-02-04T22:08:56.936Z,17.13
2017-02-04T22:09:22.524Z,17.17
2017-02-04T22:09:48.121Z,17.14
2017-02-04T22:10:46.195Z,17.14
2017-02-04T22:11:11.785Z,17.11
2017-02-04T22:11:37.354Z,17.17
2017-02-04T22:12:03.017Z,17.17
2017-02-04T22:12:28.648Z,17.1
2017-02-04T22:12:54.223Z,17.15
2017-02-04T22:13:19.819Z,17.17
2017-02-04T22:13:45.407Z,17.08
2017-02-04T22:14:11.010Z,17.17
2017-02-04T22:14:36.638Z,17.1
2017-02-04T22:15:02.328Z,17.17
2017-02-04T22:15:27.907Z,17.17
2017-02-04T22:15:53.486Z,17.14
2017-02-04T22:16:19.166Z,17.1
2017-02-04T22:16:44.783Z,17.1
2017-02-04T22:17:10.381Z,17.1
2017-02-04T22:17:36.002Z,17.14
2017-02-04T22:18:01.668Z,17.08
2017-02-04T22:18:27.308Z,17.11
2017-02-04T22:18:52.922Z,17.17
2017-02-04T22:19:18.535Z,17.15
2017-02-04T22:19:44.250Z,17.15
2017-02-04T22:20:10.667Z,17.15
2017-02-04T22:20:36.177Z,17.08
2017-02-04T22:21:01.908Z,17.13
2017-02-04T22:21:27.518Z,17.14
2017-02-04T22:21:53.158Z,17.14
2017-02-04T22:22:18.760Z,17.15
2017-02-04T22:22:44.840Z,17.1
2017-02-04T22:23:10.428Z,17.1
2017-02-04T22:23:35.976Z,17.15
2017-02-04T22:24:01.557Z,17.13
2017-02-04T22:24:27.164Z,17.14
2017-02-04T22:24:52.755Z,17.23
2017-02-04T22:25:18.341Z,17.04
2017-02-04T22:25:43.975Z,17.13
2017-02-04T22:26:09.530Z,17.1
2017-02-04T22:26:35.123Z,17.1
2017-02-04T22:27:00.720Z,17.13
2017-02-04T22:27:26.277Z,17.14
2017-02-04T22:27:51.972Z,17.14
2017-02-04T22:28:17.560Z,17.15
2017-02-04T22:28:43.123Z,17.15
2017-02-04T22:29:08.672Z,17.07
2017-02-04T22:29:34.375Z,17.11
2017-02-04T22:29:59.963Z,17.13
2017-02-04T22:30:25.546Z,17.11
2017-02-04T22:30:51.147Z,17.13
2017-02-04T22:31:16.793Z,17.18
2017-02-04T22:31:42.389Z,17.17
2017-02-04T22:32:08.010Z,17.13
2017-02-04T22:32:33.624Z,17.13
2017-02-04T22:32:59.205Z,17.1
2017-02-04T22:33:24.794Z,17.14
2017-02-04T22:33:50.394Z,17.11
2017-02-04T22:34:15.984Z,17.11
2017-02-04T22:34:41.570Z,17.14
2017-02-04T22:35:07.168Z,17.15
2017-02-04T22:35:32.745Z,17.11
2017-02-04T22:35:58.332Z,17.17
2017-02-04T22:36:23.964Z,17.14
2017-02-04T22:36:49.566Z,17.13
2017-02-04T22:37:15.140Z,17.15
2017-02-04T22:37:40.690Z,17.08
2017-02-04T22:38:06.238Z,17.13
2017-02-04T22:38:31.821Z,17.1
2017-02-04T22:38:57.383Z,17.17
2017-02-04T22:39:23.118Z,17.17
2017-02-04T22:39:48.785Z,17.13
2017-02-04T22:40:14.372Z,17.11
2017-02-04T22:40:39.949Z,17.11
2017-02-04T22:41:05.607Z,17.1
2017-02-04T22:41:31.156Z,17.18
2017-02-04T22:41:56.712Z,17.11
2017-02-04T22:42:22.273Z,17.11
2017-02-04T22:42:47.824Z,17.11
2017-02-04T22:43:13.452Z,17.1
2017-02-04T22:43:39.047Z,17.14
2017-02-04T22:44:04.634Z,17.11
2017-02-04T22:44:30.194Z,17.17
2017-02-04T22:44:55.770Z,17.1
2017-02-04T22:45:21.372Z,17.1
2017-02-04T22:45:46.923Z,17.13
2017-02-04T22:46:12.574Z,17.14
2017-02-04T22:46:38.144Z,17.14
2017-02-04T22:47:03.721Z,17.14
2017-02-04T22:47:29.385Z,17.15
2017-02-04T22:47:54.945Z,17.13
2017-02-04T22:48:20.515Z,17.17
2017-02-04T22:48:46.087Z,17.13
2017-02-04T22:49:11.723Z,17.15
2017-02-04T22:49:37.285Z,17.15
2017-02-04T22:50:02.904Z,17.08
2017-02-04T22:50:28.487Z,17.17
2017-02-04T22:50:54.127Z,17.17
2017-02-04T22:51:19.713Z,17.17
2017-02-04T22:51:45.288Z,17.11
2017-02-04T22:52:10.982Z,17.11
2017-02-04T22:52:36.554Z,17.11
2017-02-04T22:53:02.131Z,17.13
2017-02-04T22:53:27.696Z,17.13
2017-02-04T22:53:53.264Z,17.14
2017-02-04T22:54:18.843Z,17.13
2017-02-04T22:54:44.443Z,17.15
2017-02-04T22:55:10.034Z,17.1
2017-02-04T22:55:35.596Z,17.15
2017-02-04T22:56:01.174Z,17.15
2017-02-04T22:56:26.744Z,17.03
2017-02-04T22:56:52.313Z,17.06
2017-02-04T22:57:17.942Z,17.18
2017-02-04T22:57:43.513Z,17.11
2017-02-04T22:58:09.224Z,17.15
2017-02-04T22:58:34.802Z,17.11
2017-02-04T22:59:00.597Z,17.11
2017-02-04T22:59:26.190Z,17.14
2017-02-04T22:59:51.772Z,17.13
2017-02-04T23:00:17.501Z,17.13
2017-02-04T23:00:43.092Z,17.1
2017-02-04T23:01:08.681Z,17.17
2017-02-04T23:01:34.257Z,17.15
2017-02-04T23:01:59.848Z,17.1
2017-02-04T23:02:25.474Z,17.1
2017-02-04T23:02:51.039Z,17.15
2017-02-04T23:03:16.603Z,17.1
2017-02-04T23:03:42.194Z,17.15
2017-02-04T23:04:07.788Z,17.15
2017-02-04T23:04:33.404Z,17.1
2017-02-04T23:04:58.977Z,17.07
2017-02-04T23:05:24.526Z,17.11
2017-02-04T23:05:50.109Z,17.08
2017-02-04T23:06:15.675Z,17.1
2017-02-04T23:06:41.254Z,17.11
2017-02-04T23:07:06.825Z,17.11
2017-02-04T23:07:32.415Z,17.08
2017-02-04T23:07:58.019Z,17.13
2017-02-04T23:08:23.625Z,17.14
2017-02-04T23:08:49.195Z,17.08
2017-02-04T23:09:14.795Z,17.08
2017-02-04T23:09:40.340Z,17.1
2017-02-04T23:10:05.949Z,17.17
2017-02-04T23:10:31.534Z,17.11
2017-02-04T23:10:57.172Z,17.08
2017-02-04T23:11:22.802Z,17.1
2017-02-04T23:11:48.357Z,17.14
2017-02-04T23:12:13.965Z,17.13
2017-02-04T23:12:39.592Z,17.14
2017-02-04T23:13:05.169Z,17.15
2017-02-04T23:13:30.779Z,17.1
2017-02-04T23:13:56.386Z,17.13